createdAt,value
2022-10-28T00:01:42.559Z,5.19
2022-10-28T00:10:08.178Z,5.17
2022-10-28T00:13:04.748Z,5.16
2022-10-28T00:15:45.963Z,5.14
2022-10-28T00:21:49.951Z,5.09
2022-10-28T00:27:40.561Z,5.06
2022-10-28T00:30:19.433Z,5.06
2022-10-28T00:33:12.170Z,5.04
2022-10-28T00:35:52.267Z,5.07
2022-10-28T00:38:48.155Z,5.07
2022-10-28T00:41:26.201Z,5.09
2022-10-28T00:44:17.478Z,5.09
2022-10-28T00:47:13.301Z,5.17
2022-10-28T00:50:14.484Z,5.17
2022-10-28T00:52:56.221Z,4.86
2022-10-28T00:55:38.480Z,5.04
2022-10-28T00:58:31.159Z,5.17
2022-10-28T01:01:23.060Z,5.17
2022-10-28T01:04:04.673Z,5.21
2022-10-28T01:06:47.931Z,5.23
2022-10-28T01:09:40.984Z,5.02
2022-10-28T01:12:38.508Z,5.24
2022-10-28T01:15:30.845Z,5.27
2022-10-28T01:18:16.186Z,5.27
2022-10-28T01:21:26.847Z,5.23
2022-10-28T01:24:22.894Z,5.21
2022-10-28T01:27:27.449Z,5.22
2022-10-28T01:30:43.752Z,5.24
2022-10-28T01:33:40.807Z,5.24
2022-10-28T01:36:28.745Z,4.48
2022-10-28T01:39:17.743Z,5.28
2022-10-28T01:42:09.564Z,5.31
2022-10-28T01:48:06.188Z,5.36
2022-10-28T01:51:05.193Z,5.36
2022-10-28T02:00:02.704Z,4.99
2022-10-28T02:02:39.390Z,4.53
2022-10-28T02:06:08.338Z,4.50
2022-10-28T02:09:14.128Z,4.42
2022-10-28T02:12:19.397Z,4.93
2022-10-28T02:15:15.899Z,4.98
2022-10-28T02:18:01.895Z,4.92
2022-10-28T02:20:44.338Z,4.40
2022-10-28T02:23:25.109Z,5.06
2022-10-28T02:26:01.652Z,5.32
2022-10-28T02:28:42.367Z,5.29
2022-10-28T02:31:27.952Z,4.40
2022-10-28T02:34:04.154Z,5.08
2022-10-28T02:36:40.621Z,5.05
2022-10-28T02:39:11.633Z,4.69
2022-10-28T02:41:49.404Z,4.76
2022-10-28T02:44:26.810Z,4.65
2022-10-28T02:47:00.822Z,5.15
2022-10-28T02:49:39.182Z,4.78
2022-10-28T02:52:11.761Z,5.03
2022-10-28T02:54:48.587Z,4.95
2022-10-28T02:57:22.861Z,4.21
2022-10-28T02:59:58.666Z,4.63
2022-10-28T03:02:30.683Z,4.44
2022-10-28T03:05:05.012Z,4.67
2022-10-28T03:07:39.243Z,4.25
2022-10-28T03:10:11.100Z,4.59
2022-10-28T03:12:41.917Z,4.52
2022-10-28T03:15:13.787Z,4.56
2022-10-28T03:17:44.736Z,4.50
2022-10-28T03:20:17.499Z,4.45
2022-10-28T03:22:52.805Z,4.02
2022-10-28T03:25:23.782Z,3.96
2022-10-28T03:27:54.863Z,3.78
2022-10-28T03:30:25.653Z,3.79
2022-10-28T03:33:00.435Z,4.43
2022-10-28T03:35:35.870Z,4.30
2022-10-28T03:38:07.151Z,4.61
2022-10-28T03:40:40.238Z,4.67
2022-10-28T03:43:11.150Z,4.24
2022-10-28T03:45:44.773Z,4.72
2022-10-28T03:49:01.409Z,4.69
2022-10-28T03:52:00.568Z,4.44
2022-10-28T03:54:34.477Z,4.37
2022-10-28T03:57:08.698Z,4.41
2022-10-28T03:59:49.464Z,5.04
2022-10-28T04:02:56.453Z,5.02
2022-10-28T04:05:19.538Z,4.40
2022-10-28T04:07:54.215Z,4.11
2022-10-28T04:10:29.039Z,4.86
2022-10-28T04:13:11.599Z,5.06
2022-10-28T04:15:44.599Z,5.12
2022-10-28T04:18:28.369Z,4.40
2022-10-28T04:21:02.970Z,5.22
2022-10-28T04:23:41.251Z,4.70
2022-10-28T04:26:17.553Z,5.25
2022-10-28T04:28:57.400Z,4.45
2022-10-28T04:39:36.560Z,4.40
2022-10-28T05:28:54.933Z,4.24
2022-10-28T05:31:27.512Z,4.49
2022-10-28T05:34:16.818Z,4.72
2022-10-28T05:36:52.030Z,4.13
2022-10-28T05:39:24.180Z,4.25
2022-10-28T05:41:58.499Z,4.21
2022-10-28T05:44:33.280Z,4.72
2022-10-28T05:47:07.500Z,4.04
2022-10-28T05:49:42.838Z,4.43
2022-10-28T05:52:16.078Z,4.95
2022-10-28T05:54:52.287Z,4.72
2022-10-28T05:57:24.450Z,4.70
2022-10-28T05:59:59.599Z,4.38
2022-10-28T06:03:30.942Z,4.38
2022-10-28T06:09:24.108Z,4.61
2022-10-28T06:11:56.106Z,4.57
2022-10-28T06:14:29.097Z,4.96
2022-10-28T06:17:02.944Z,4.95
2022-10-28T06:19:38.467Z,4.90
2022-10-28T06:22:11.141Z,3.82
2022-10-28T06:24:42.329Z,4.76
2022-10-28T06:27:21.359Z,4.95
2022-10-28T06:29:52.683Z,4.40
2022-10-28T06:32:36.601Z,4.76
2022-10-28T06:35:25.413Z,4.38
2022-10-28T06:37:56.980Z,4.00
2022-10-28T06:40:29.075Z,4.53
2022-10-28T06:43:05.895Z,4.88
2022-10-28T06:45:37.506Z,4.36
2022-10-28T06:48:13.403Z,4.92
2022-10-28T06:50:44.960Z,4.81
2022-10-28T06:53:19.390Z,4.71
2022-10-28T06:55:56.463Z,4.79
2022-10-28T06:58:28.537Z,4.82
2022-10-28T07:00:59.777Z,4.22
2022-10-28T07:03:33.953Z,4.32
2022-10-28T07:06:05.219Z,4.58
2022-10-28T07:08:36.141Z,4.17
2022-10-28T07:11:09.867Z,4.38
2022-10-28T07:13:42.539Z,4.64
2022-10-28T07:16:27.533Z,4.68
2022-10-28T07:19:02.247Z,4.78
2022-10-28T07:21:35.578Z,4.82
2022-10-28T07:24:06.851Z,4.53
2022-10-28T07:26:38.897Z,4.91
2022-10-28T07:29:14.754Z,4.13
2022-10-28T07:31:46.866Z,4.95
2022-10-28T07:34:38.304Z,5.07
2022-10-28T07:37:22.646Z,5.01
2022-10-28T07:39:53.691Z,4.53
2022-10-28T07:42:25.389Z,4.43
2022-10-28T07:44:56.366Z,4.56
2022-10-28T07:47:27.268Z,4.64
2022-10-28T07:50:00.287Z,4.17
2022-10-28T07:52:31.216Z,3.92
2022-10-28T07:55:02.607Z,4.68
2022-10-28T07:57:38.446Z,4.36
2022-10-28T08:00:11.160Z,4.30
2022-10-28T08:02:44.387Z,4.41
2022-10-28T08:05:17.665Z,4.42
2022-10-28T08:07:49.481Z,4.22
2022-10-28T08:10:25.321Z,5.01
2022-10-28T08:13:01.929Z,5.04
2022-10-28T08:15:49.932Z,5.09
2022-10-28T08:18:21.052Z,5.02
2022-10-28T08:20:54.120Z,5.01
2022-10-28T08:23:25.450Z,5.24
2022-10-28T08:25:57.105Z,5.30
2022-10-28T08:28:28.469Z,5.33
2022-10-28T08:31:09.192Z,5.02
2022-10-28T08:33:41.412Z,4.70
2022-10-28T08:36:16.942Z,4.54
2022-10-28T08:38:49.425Z,4.56
2022-10-28T08:41:34.803Z,5.04
2022-10-28T08:44:37.687Z,5.24
2022-10-28T08:47:19.546Z,5.19
2022-10-28T08:49:55.680Z,4.67
2022-10-28T08:52:35.011Z,4.54
2022-10-28T08:55:10.736Z,5.19
2022-10-28T08:57:45.151Z,4.83
2022-10-28T09:00:23.587Z,5.03
2022-10-28T09:03:09.344Z,5.27
2022-10-28T09:05:41.837Z,4.79
2022-10-28T09:08:25.407Z,4.67
2022-10-28T09:11:26.354Z,5.19
2022-10-28T09:14:24.440Z,4.97
2022-10-28T09:17:12.740Z,4.95
2022-10-28T09:19:53.308Z,5.44
2022-10-28T09:22:27.889Z,5.39
2022-10-28T09:25:08.008Z,4.60
2022-10-28T09:27:59.004Z,4.75
2022-10-28T09:30:39.749Z,4.89
2022-10-28T09:33:51.901Z,5.33
2022-10-28T09:36:29.572Z,4.76
2022-10-28T09:39:04.811Z,5.33
2022-10-28T09:41:44.235Z,5.16
2022-10-28T09:44:24.790Z,5.05
2022-10-28T09:47:08.398Z,5.32
2022-10-28T09:49:42.523Z,4.61
2022-10-28T09:52:26.516Z,5.30
2022-10-28T09:56:14.318Z,5.33
2022-10-28T09:58:50.155Z,4.85
2022-10-28T10:01:22.977Z,5.40
2022-10-28T10:03:57.744Z,5.34
2022-10-28T10:06:32.013Z,5.06
2022-10-28T10:09:03.285Z,4.88
2022-10-28T10:11:46.012Z,5.39
2022-10-28T10:14:21.435Z,4.83
2022-10-28T10:16:57.381Z,4.80
2022-10-28T10:19:28.797Z,4.97
2022-10-28T10:22:00.015Z,5.32
2022-10-28T10:24:35.575Z,5.18
2022-10-28T10:27:20.637Z,5.24
2022-10-28T10:29:55.379Z,4.87
2022-10-28T10:32:32.426Z,5.21
2022-10-28T10:35:18.314Z,4.86
2022-10-28T10:37:51.021Z,4.63
2022-10-28T10:40:27.178Z,4.65
2022-10-28T10:43:10.035Z,5.13
2022-10-28T10:45:55.341Z,5.43
2022-10-28T10:48:26.377Z,5.08
2022-10-28T10:51:00.683Z,4.96
2022-10-28T10:53:34.295Z,5.28
2022-10-28T10:56:42.894Z,5.23
2022-10-28T10:59:27.687Z,5.06
2022-10-28T11:02:01.577Z,4.98
2022-10-28T11:04:37.782Z,5.05
2022-10-28T11:07:09.129Z,4.71
2022-10-28T11:09:53.025Z,4.56
2022-10-28T11:13:43.572Z,4.58
2022-10-28T11:16:29.449Z,4.80
2022-10-28T11:19:21.006Z,4.76
2022-10-28T11:22:05.764Z,4.52
2022-10-28T11:24:59.000Z,4.50
2022-10-28T11:27:43.178Z,4.83
2022-10-28T11:30:19.129Z,4.13
2022-10-28T11:33:28.307Z,4.69
2022-10-28T11:36:15.195Z,4.30
2022-10-28T11:39:03.289Z,3.92
2022-10-28T11:41:43.254Z,4.44
2022-10-28T11:44:28.104Z,4.36
2022-10-28T11:47:22.550Z,3.98
2022-10-28T11:50:29.832Z,4.31
2022-10-28T11:53:26.337Z,4.54
2022-10-28T11:56:06.585Z,4.29
2022-10-28T11:58:57.359Z,4.10
2022-10-28T12:01:48.732Z,4.28
2022-10-28T12:04:36.600Z,3.85
2022-10-28T12:07:29.135Z,3.95
2022-10-28T12:10:35.549Z,4.56
2022-10-28T12:13:25.658Z,4.03
2022-10-28T12:16:23.885Z,4.50
2022-10-28T12:19:00.656Z,3.88
2022-10-28T12:24:16.055Z,4.63
2022-10-28T12:26:54.843Z,4.38
2022-10-28T12:29:29.786Z,4.23
2022-10-28T12:32:08.783Z,4.58
2022-10-28T12:34:45.009Z,4.31
2022-10-28T12:37:21.414Z,4.06
2022-10-28T12:40:07.455Z,4.53
2022-10-28T12:42:43.380Z,4.54
2022-10-28T12:45:17.811Z,3.96
2022-10-28T12:47:56.613Z,4.48
2022-10-28T12:50:35.003Z,4.03
2022-10-28T12:53:24.393Z,4.23
2022-10-28T12:56:00.600Z,4.25
2022-10-28T12:58:38.693Z,4.53
2022-10-28T13:01:13.906Z,4.43
2022-10-28T13:03:45.134Z,3.98
2022-10-28T13:06:38.439Z,4.21
2022-10-28T13:09:45.455Z,4.25
2022-10-28T13:12:33.564Z,4.04
2022-10-28T13:15:33.938Z,4.66
2022-10-28T13:18:25.250Z,4.73
2022-10-28T13:21:06.432Z,4.60
2022-10-28T13:23:46.581Z,4.59
2022-10-28T13:26:27.221Z,4.78
2022-10-28T13:29:00.199Z,4.69
2022-10-28T13:31:42.730Z,4.12
2022-10-28T13:34:19.568Z,4.18
2022-10-28T13:36:58.272Z,4.57
2022-10-28T13:39:45.334Z,4.24
2022-10-28T13:42:48.560Z,4.71
2022-10-28T13:45:51.793Z,4.84
2022-10-28T13:49:01.396Z,4.83
2022-10-28T13:51:36.720Z,4.86
2022-10-28T13:54:20.643Z,4.46
2022-10-28T13:56:55.652Z,4.08
2022-10-28T13:59:31.839Z,4.87
2022-10-28T14:05:16.599Z,4.89
2022-10-28T14:07:57.430Z,4.78
2022-10-28T14:10:30.902Z,4.93
2022-10-28T14:13:04.150Z,4.60
2022-10-28T14:15:37.047Z,4.06
2022-10-28T14:18:37.468Z,4.65
2022-10-28T14:21:03.464Z,4.95
2022-10-28T14:24:18.947Z,4.95
2022-10-28T14:27:28.286Z,4.94
2022-10-28T14:30:19.933Z,4.96
2022-10-28T14:33:22.415Z,4.80
2022-10-28T14:36:02.851Z,4.84
2022-10-28T14:39:06.065Z,4.48
2022-10-28T14:48:15.879Z,4.38
2022-10-28T14:50:49.732Z,4.64
2022-10-28T14:53:30.554Z,4.46
2022-10-28T14:58:54.832Z,4.60
2022-10-28T15:01:32.786Z,5.00
2022-10-28T15:04:08.447Z,4.46
2022-10-28T15:06:43.641Z,4.71
2022-10-28T15:09:23.397Z,5.01
2022-10-28T15:11:59.850Z,4.64
2022-10-28T15:14:34.973Z,4.48
2022-10-28T15:17:17.951Z,4.92
2022-10-28T15:19:49.947Z,4.72
2022-10-28T15:22:23.560Z,4.89
2022-10-28T15:25:02.484Z,4.86
2022-10-28T15:27:36.755Z,4.96
2022-10-28T15:30:10.611Z,4.92
2022-10-28T15:32:41.507Z,4.98
2022-10-28T15:35:43.306Z,5.08
2022-10-28T15:38:39.042Z,4.71
2022-10-28T15:41:44.922Z,4.71
2022-10-28T15:44:48.681Z,5.09
2022-10-28T15:47:26.107Z,4.89
2022-10-28T15:50:37.952Z,5.10
2022-10-28T15:53:36.408Z,4.72
2022-10-28T15:56:25.272Z,4.96
2022-10-28T15:59:14.026Z,4.71
2022-10-28T16:01:49.634Z,5.03
2022-10-28T16:04:50.488Z,5.18
2022-10-28T16:07:21.505Z,5.06
2022-10-28T16:09:52.955Z,5.12
2022-10-28T16:12:27.445Z,5.21
2022-10-28T16:15:02.262Z,4.83
2022-10-28T16:17:39.199Z,5.06
2022-10-28T16:20:18.538Z,5.27
2022-10-28T16:22:52.234Z,5.31
2022-10-28T16:25:24.976Z,4.89
2022-10-28T16:27:56.444Z,5.31
2022-10-28T16:30:27.646Z,4.95
2022-10-28T16:33:00.375Z,5.10
2022-10-28T16:35:31.384Z,5.30
2022-10-28T16:38:03.739Z,5.30
2022-10-28T16:40:52.338Z,5.30
2022-10-28T16:43:25.648Z,5.22
2022-10-28T16:46:00.425Z,5.14
2022-10-28T16:48:34.481Z,5.01
2022-10-28T16:51:07.398Z,5.33
2022-10-28T16:53:39.736Z,5.04
2022-10-28T16:56:14.427Z,5.24
2022-10-28T16:58:47.804Z,5.22
2022-10-28T17:01:22.721Z,5.00
2022-10-28T17:03:56.440Z,4.50
2022-10-28T17:06:27.714Z,5.24
2022-10-28T17:09:03.381Z,4.83
2022-10-28T17:11:34.743Z,4.48
2022-10-28T17:14:05.628Z,5.23
2022-10-28T17:16:38.081Z,4.53
2022-10-28T17:19:14.021Z,4.54
2022-10-28T17:21:45.657Z,5.17
2022-10-28T17:24:16.812Z,5.17
2022-10-28T17:26:48.713Z,5.17
2022-10-28T17:29:20.144Z,5.16
2022-10-28T17:34:40.848Z,4.79
2022-10-28T17:37:12.518Z,5.08
2022-10-28T17:39:43.427Z,4.53
2022-10-28T17:42:14.516Z,5.16
2022-10-28T17:44:46.106Z,4.69
2022-10-28T17:47:17.703Z,5.03
2022-10-28T17:49:50.512Z,5.08
2022-10-28T17:52:21.445Z,4.69
2022-10-28T17:54:52.449Z,4.67
2022-10-28T17:57:23.450Z,4.44
2022-10-28T17:59:54.410Z,4.75
2022-10-28T18:02:25.860Z,5.17
2022-10-28T18:04:58.651Z,4.59
2022-10-28T18:07:29.583Z,5.16
2022-10-28T18:10:00.460Z,5.16
2022-10-28T18:12:31.622Z,5.02
2022-10-28T18:15:03.475Z,4.45
2022-10-28T18:17:34.465Z,4.83
2022-10-28T18:20:07.294Z,4.87
2022-10-28T18:22:39.079Z,5.19
2022-10-28T18:25:45.651Z,5.23
2022-10-28T18:28:52.547Z,5.23
2022-10-28T18:32:01.639Z,5.22
2022-10-28T18:35:08.285Z,5.23
2022-10-28T18:38:15.202Z,5.23
2022-10-28T18:41:22.089Z,5.23
2022-10-28T18:44:32.799Z,4.90
2022-10-28T18:47:39.624Z,4.67
2022-10-28T18:50:49.216Z,5.23
2022-10-28T18:53:23.147Z,4.84
2022-10-28T18:55:56.897Z,4.36
2022-10-28T18:58:33.894Z,5.11
2022-10-28T19:01:11.670Z,5.22
2022-10-28T19:03:43.229Z,5.09
2022-10-28T19:06:23.173Z,5.10
2022-10-28T19:09:35.514Z,5.28
2022-10-28T19:13:05.184Z,5.30
2022-10-28T19:16:37.139Z,5.29
2022-10-28T19:19:40.364Z,5.27
2022-10-28T19:22:47.422Z,5.27
2022-10-28T19:25:54.214Z,5.29
2022-10-28T19:29:01.274Z,5.29
2022-10-28T19:32:11.449Z,5.26
2022-10-28T19:35:18.765Z,5.26
2022-10-28T19:38:27.182Z,5.27
2022-10-28T19:41:33.970Z,5.28
2022-10-28T19:44:51.276Z,5.26
2022-10-28T19:47:58.345Z,5.27
2022-10-28T19:51:06.027Z,5.29
2022-10-28T19:54:13.550Z,5.29
2022-10-28T19:57:22.698Z,5.29
2022-10-28T20:00:29.804Z,5.27
2022-10-28T20:03:39.366Z,5.26
2022-10-28T20:06:59.528Z,5.25
2022-10-28T20:10:24.670Z,5.23
2022-10-28T20:13:31.649Z,5.26
2022-10-28T20:16:49.361Z,5.25
2022-10-28T20:19:57.074Z,5.27
2022-10-28T20:23:04.765Z,5.28
2022-10-28T20:26:13.688Z,5.30
2022-10-28T20:29:20.523Z,5.27
2022-10-28T20:32:30.182Z,5.30
2022-10-28T20:35:37.641Z,5.31
2022-10-28T20:38:44.926Z,5.29
2022-10-28T20:41:52.138Z,5.28
2022-10-28T20:44:59.231Z,5.01
2022-10-28T20:48:09.128Z,5.31
2022-10-28T20:51:15.800Z,5.31
2022-10-28T20:54:22.473Z,5.31
2022-10-28T20:57:29.977Z,5.30
2022-10-28T21:00:39.518Z,5.30
2022-10-28T21:03:52.929Z,5.30
2022-10-28T21:07:07.870Z,5.29
2022-10-28T21:10:17.708Z,5.32
2022-10-28T21:13:55.262Z,5.33
2022-10-28T21:17:05.829Z,5.35
2022-10-28T21:20:19.421Z,5.35
2022-10-28T21:26:28.890Z,4.85
2022-10-28T21:28:59.195Z,5.41
2022-10-28T21:31:30.849Z,4.56
2022-10-28T21:34:04.452Z,5.43
2022-10-28T21:36:38.881Z,5.08
2022-10-28T21:39:27.093Z,4.59
2022-10-28T21:41:59.770Z,5.45
2022-10-28T21:44:33.154Z,5.29
2022-10-28T21:47:04.119Z,5.53
2022-10-28T21:49:38.482Z,5.54
2022-10-28T21:52:09.577Z,5.54
2022-10-28T21:54:40.408Z,5.17
2022-10-28T21:57:13.502Z,5.00
2022-10-28T21:59:44.671Z,5.01
2022-10-28T22:02:15.667Z,5.01
2022-10-28T22:04:46.585Z,5.41
2022-10-28T22:07:17.355Z,5.62
2022-10-28T22:09:48.236Z,5.19
2022-10-28T22:12:23.210Z,5.54
2022-10-28T22:14:54.624Z,4.98
2022-10-28T22:17:25.513Z,5.19
2022-10-28T22:20:03.463Z,5.59
2022-10-28T22:22:34.469Z,5.67
2022-10-28T22:25:07.803Z,5.59
2022-10-28T22:27:44.540Z,5.71
2022-10-28T22:30:20.579Z,5.55
2022-10-28T22:32:55.187Z,5.55
2022-10-28T22:35:29.235Z,5.16
2022-10-28T22:38:02.474Z,5.83
2022-10-28T22:40:35.462Z,5.75
2022-10-28T22:43:10.738Z,5.82
2022-10-28T22:45:41.503Z,5.44
2022-10-28T22:48:12.675Z,5.80
2022-10-28T22:50:45.173Z,5.54
2022-10-28T22:53:16.040Z,5.46
2022-10-28T22:55:46.847Z,5.51
2022-10-28T22:58:22.404Z,5.47
2022-10-28T23:00:56.417Z,5.93
2022-10-28T23:03:27.932Z,6.00
2022-10-28T23:06:01.068Z,6.02
2022-10-28T23:08:32.382Z,6.05
2022-10-28T23:11:03.277Z,5.87
2022-10-28T23:13:38.953Z,6.10
2022-10-28T23:16:10.999Z,5.62
2022-10-28T23:18:45.907Z,6.08
2022-10-28T23:21:20.198Z,6.14
2022-10-28T23:23:55.570Z,5.50
2022-10-28T23:26:27.198Z,5.39
2022-10-28T23:29:01.428Z,5.34
2022-10-28T23:31:32.563Z,5.46
2022-10-28T23:34:03.667Z,6.08
2022-10-28T23:36:35.656Z,6.02
2022-10-28T23:39:08.231Z,6.14
2022-10-28T23:41:38.960Z,5.93
2022-10-28T23:44:11.563Z,5.87
2022-10-28T23:46:45.459Z,5.99
2022-10-28T23:49:19.450Z,5.61
2022-10-28T23:51:50.400Z,5.65
2022-10-28T23:54:21.284Z,6.31
2022-10-28T23:56:56.175Z,6.52
2022-10-28T23:59:31.509Z,6.31
